createdAt,value
2018-10-11T00:00:57.608Z,100799.43
2018-10-11T00:03:25.767Z,100812.23
2018-10-11T00:05:53.911Z,100819.20
2018-10-11T00:08:22.080Z,100807.22
2018-10-11T00:10:50.225Z,100801.25
2018-10-11T00:13:18.412Z,100807.56
2018-10-11T00:15:46.620Z,100803.08
2018-10-11T00:18:14.774Z,100797.41
2018-10-11T00:20:42.960Z,100792.09
2018-10-11T00:23:11.163Z,100794.91
2018-10-11T00:25:39.347Z,100803.88
2018-10-11T00:28:07.516Z,100792.55
2018-10-11T00:30:35.822Z,100800.53
2018-10-11T00:33:03.931Z,100800.53
2018-10-11T00:35:32.094Z,100804.86
2018-10-11T00:38:00.515Z,100803.19
2018-10-11T00:40:28.681Z,100811.86
2018-10-11T00:42:56.859Z,100801.06
2018-10-11T00:45:25.024Z,100791.26
2018-10-11T00:47:53.305Z,100802.39
2018-10-11T00:50:21.457Z,100793.58
2018-10-11T00:52:49.639Z,100786.92
2018-10-11T00:55:17.807Z,100782.59
2018-10-11T00:57:45.963Z,100774.27
2018-10-11T01:00:14.208Z,100771.27
2018-10-11T01:02:42.393Z,100764.95
2018-10-11T01:05:10.542Z,100758.64
2018-10-11T01:07:38.830Z,100759.14
2018-10-11T01:10:07.119Z,100759.97
2018-10-11T01:12:35.245Z,100763.63
2018-10-11T01:15:03.503Z,100759.78
2018-10-11T01:17:31.663Z,100753.47
2018-10-11T01:19:59.823Z,100757.96
2018-10-11T01:22:28.027Z,100755.83
2018-10-11T01:24:56.221Z,100752.37
2018-10-11T01:27:24.423Z,100753.70
2018-10-11T01:29:52.628Z,100758.69
2018-10-11T01:32:20.799Z,100768.98
2018-10-11T01:34:48.967Z,100764.31
2018-10-11T01:37:17.191Z,100769.29
2018-10-11T01:39:45.427Z,100775.45
2018-10-11T01:42:13.568Z,100770.28
2018-10-11T01:44:41.739Z,100763.63
2018-10-11T01:47:09.907Z,100759.63
2018-10-11T01:49:38.143Z,100767.62
2018-10-11T01:52:06.354Z,100755.30
2018-10-11T01:54:34.521Z,100756.14
2018-10-11T01:57:02.724Z,100756.30
2018-10-11T01:59:31.037Z,100771.75
2018-10-11T02:01:59.241Z,100768.22
2018-10-11T02:04:27.587Z,100762.52
2018-10-11T02:06:55.843Z,100747.39
2018-10-11T02:09:24.281Z,100760.69
2018-10-11T02:11:52.482Z,100754.19
2018-10-11T02:14:20.695Z,100744.84
2018-10-11T02:16:48.902Z,100739.48
2018-10-11T02:19:17.062Z,100742.14
2018-10-11T02:21:45.228Z,100743.13
2018-10-11T02:24:13.423Z,100748.03
2018-10-11T02:26:41.609Z,100747.98
2018-10-11T02:29:10.198Z,100743.12
2018-10-11T02:31:38.365Z,100741.97
2018-10-11T02:34:06.531Z,100740.45
2018-10-11T02:36:34.727Z,100742.91
2018-10-11T02:39:02.947Z,100732.44
2018-10-11T02:41:31.132Z,100735.58
2018-10-11T02:43:59.283Z,100740.90
2018-10-11T02:46:27.507Z,100734.25
2018-10-11T02:48:55.726Z,100730.27
2018-10-11T02:51:23.978Z,100725.44
2018-10-11T02:53:52.407Z,100719.29
2018-10-11T02:56:22.063Z,100714.96
2018-10-11T02:59:01.563Z,100711.47
2018-10-11T03:01:29.811Z,100712.95
2018-10-11T03:04:01.735Z,100714.96
2018-10-11T03:06:29.965Z,100712.30
2018-10-11T03:08:58.159Z,100714.28
2018-10-11T03:11:26.356Z,100714.28
2018-10-11T03:13:54.507Z,100712.26
2018-10-11T03:16:22.659Z,100718.91
2018-10-11T03:18:50.828Z,100727.87
2018-10-11T03:21:19.570Z,100729.03
2018-10-11T03:23:47.750Z,100727.51
2018-10-11T03:26:15.938Z,100729.18
2018-10-11T03:28:44.089Z,100740.80
2018-10-11T03:31:12.250Z,100744.09
2018-10-11T03:33:40.431Z,100744.73
2018-10-11T03:36:08.683Z,100742.42
2018-10-11T03:38:36.851Z,100744.59
2018-10-11T03:41:05.023Z,100745.91
2018-10-11T03:43:33.187Z,100745.72
2018-10-11T03:46:01.383Z,100739.42
2018-10-11T03:48:29.541Z,100735.09
2018-10-11T03:50:57.717Z,100735.29
2018-10-11T03:53:25.912Z,100737.80
2018-10-11T03:55:54.143Z,100734.80
2018-10-11T03:58:22.355Z,100736.66
2018-10-11T04:00:50.551Z,100736.17
2018-10-11T04:03:18.741Z,100733.85
2018-10-11T04:05:46.914Z,100734.34
2018-10-11T04:08:15.090Z,100738.83
2018-10-11T04:10:43.297Z,100730.02
2018-10-11T04:13:11.723Z,100732.67
2018-10-11T04:15:39.954Z,100732.53
2018-10-11T04:18:08.116Z,100732.19
2018-10-11T04:20:36.284Z,100731.49
2018-10-11T04:23:04.676Z,100724.16
2018-10-11T04:25:32.852Z,100726.13
2018-10-11T04:28:01.026Z,100725.79
2018-10-11T04:30:29.222Z,100723.77
2018-10-11T04:32:57.987Z,100726.73
2018-10-11T04:35:26.556Z,100731.88
2018-10-11T04:37:54.772Z,100730.20
2018-10-11T04:40:22.940Z,100730.36
2018-10-11T04:42:51.167Z,100729.17
2018-10-11T04:45:19.293Z,100730.02
2018-10-11T04:47:47.635Z,100720.86
2018-10-11T04:50:15.823Z,100714.37
2018-10-11T04:52:44.216Z,100715.35
2018-10-11T04:55:12.396Z,100728.59
2018-10-11T04:57:40.585Z,100732.72
2018-10-11T05:00:15.422Z,100736.54
2018-10-11T05:02:43.612Z,100734.17
2018-10-11T05:05:11.797Z,100739.78
2018-10-11T05:07:39.966Z,100742.73
2018-10-11T05:10:08.174Z,100740.86
2018-10-11T05:12:36.504Z,100742.02
2018-10-11T05:15:04.860Z,100742.66
2018-10-11T05:17:33.652Z,100749.94
2018-10-11T05:20:01.899Z,100750.91
2018-10-11T05:22:30.058Z,100759.86
2018-10-11T05:24:58.331Z,100763.99
2018-10-11T05:27:26.575Z,100762.81
2018-10-11T05:29:54.747Z,100768.75
2018-10-11T05:32:22.991Z,100770.92
2018-10-11T05:34:51.204Z,100773.08
2018-10-11T05:37:19.438Z,100789.66
2018-10-11T05:39:47.694Z,100787.00
2018-10-11T05:42:22.509Z,100793.98
2018-10-11T05:44:51.047Z,100796.70
2018-10-11T05:47:19.245Z,100800.68
2018-10-11T05:49:47.470Z,100810.32
2018-10-11T05:52:15.755Z,100813.67
2018-10-11T05:54:44.092Z,100808.07
2018-10-11T05:57:12.268Z,100798.48
2018-10-11T05:59:40.440Z,100810.92
2018-10-11T06:02:08.811Z,100816.73
2018-10-11T06:04:37.300Z,100810.75
2018-10-11T06:07:05.717Z,100805.98
2018-10-11T06:09:33.896Z,100797.88
2018-10-11T06:12:02.159Z,100802.05
2018-10-11T06:14:30.227Z,100808.90
2018-10-11T06:16:58.387Z,100799.13
2018-10-11T06:19:26.567Z,100801.00
2018-10-11T06:21:54.726Z,100801.20
2018-10-11T06:24:22.887Z,100793.09
2018-10-11T06:26:51.072Z,100803.08
2018-10-11T06:29:25.827Z,100801.25
2018-10-11T06:31:54.026Z,100816.70
2018-10-11T06:34:22.208Z,100822.86
2018-10-11T06:36:50.381Z,100828.17
2018-10-11T06:39:18.575Z,100830.20
2018-10-11T06:41:46.761Z,100836.34
2018-10-11T06:44:14.915Z,100838.82
2018-10-11T06:46:43.088Z,100852.63
2018-10-11T06:49:11.258Z,100854.97
2018-10-11T06:51:39.431Z,100862.02
2018-10-11T06:54:07.615Z,100854.09
2018-10-11T06:56:35.791Z,100851.45
2018-10-11T06:59:03.955Z,100849.48
2018-10-11T07:01:32.145Z,100855.84
2018-10-11T07:04:00.300Z,100858.00
2018-10-11T07:06:28.831Z,100864.16
2018-10-11T07:08:56.971Z,100871.15
2018-10-11T07:11:25.129Z,100873.31
2018-10-11T07:13:53.297Z,100872.83
2018-10-11T07:16:21.463Z,100878.34
2018-10-11T07:18:49.838Z,100873.56
2018-10-11T07:21:17.999Z,100880.03
2018-10-11T07:23:46.159Z,100898.20
2018-10-11T07:26:14.348Z,100902.88
2018-10-11T07:28:42.528Z,100906.58
2018-10-11T07:31:10.678Z,100905.83
2018-10-11T07:33:38.842Z,100908.02
2018-10-11T07:36:07.016Z,100900.23
2018-10-11T07:38:35.179Z,100905.75
2018-10-11T07:41:03.398Z,100908.11
2018-10-11T07:43:31.645Z,100905.16
2018-10-11T07:45:59.790Z,100905.16
2018-10-11T07:48:27.964Z,100910.15
2018-10-11T07:50:56.146Z,100903.00
2018-10-11T07:53:24.319Z,100897.53
2018-10-11T07:55:52.470Z,100896.40
2018-10-11T07:58:20.627Z,100895.27
2018-10-11T08:00:48.883Z,100899.95
2018-10-11T08:03:17.067Z,100908.13
2018-10-11T08:05:45.219Z,100910.30
2018-10-11T08:08:13.423Z,100903.35
2018-10-11T08:10:41.879Z,100904.73
2018-10-11T08:13:09.719Z,100898.95
2018-10-11T08:15:37.898Z,100908.77
2018-10-11T08:18:06.576Z,100910.48
2018-10-11T08:20:34.959Z,100914.18
2018-10-11T08:23:03.023Z,100912.20
2018-10-11T08:25:31.618Z,100910.05
2018-10-11T08:27:59.351Z,100907.58
2018-10-11T08:30:27.591Z,100910.28
2018-10-11T08:32:55.792Z,100903.66
2018-10-11T08:35:23.909Z,100903.67
2018-10-11T08:37:52.242Z,100901.87
2018-10-11T08:40:20.668Z,100903.59
2018-10-11T08:42:48.440Z,100896.28
2018-10-11T08:45:16.600Z,100893.50
2018-10-11T08:47:44.769Z,100896.91
2018-10-11T08:50:12.998Z,100906.08
2018-10-11T08:52:41.121Z,100902.47
2018-10-11T08:55:09.289Z,100905.00
2018-10-11T08:57:37.457Z,100899.48
2018-10-11T09:00:06.636Z,100906.17
2018-10-11T09:02:34.832Z,100907.39
2018-10-11T09:05:03.041Z,100897.75
2018-10-11T09:07:31.169Z,100903.41
2018-10-11T09:09:59.382Z,100903.78
2018-10-11T09:12:27.542Z,100904.30
2018-10-11T09:14:55.711Z,100902.48
2018-10-11T09:17:23.936Z,100897.86
2018-10-11T09:19:52.047Z,100898.03
2018-10-11T09:22:20.211Z,100899.56
2018-10-11T09:24:48.538Z,100901.26
2018-10-11T09:27:16.704Z,100902.42
2018-10-11T09:29:44.876Z,100896.96
2018-10-11T09:32:13.018Z,100890.66
2018-10-11T09:34:41.190Z,100893.68
2018-10-11T09:37:09.336Z,100884.52
2018-10-11T09:39:37.538Z,100887.02
2018-10-11T09:42:05.844Z,100887.54
2018-10-11T09:44:33.990Z,100887.86
2018-10-11T09:47:02.144Z,100883.33
2018-10-11T09:49:30.327Z,100887.64
2018-10-11T09:51:58.521Z,100883.16
2018-10-11T09:54:26.808Z,100887.47
2018-10-11T09:57:15.248Z,100878.23
2018-10-11T09:59:43.475Z,100875.84
2018-10-11T10:02:12.524Z,100877.83
2018-10-11T10:04:45.103Z,100871.91
2018-10-11T10:07:13.482Z,100873.02
2018-10-11T10:09:42.498Z,100872.66
2018-10-11T10:12:11.244Z,100872.09
2018-10-11T10:14:40.033Z,100875.77
2018-10-11T10:17:08.251Z,100869.19
2018-10-11T10:19:36.427Z,100871.83
2018-10-11T10:22:04.991Z,100861.70
2018-10-11T10:24:33.563Z,100862.96
2018-10-11T10:27:01.773Z,100860.26
2018-10-11T10:29:29.904Z,100859.38
2018-10-11T10:31:58.579Z,100856.11
2018-10-11T10:34:26.992Z,100864.41
2018-10-11T10:36:55.175Z,100865.48
2018-10-11T10:39:23.822Z,100860.36
2018-10-11T10:41:51.975Z,100858.48
2018-10-11T10:44:20.170Z,100859.03
2018-10-11T10:46:48.433Z,100859.58
2018-10-11T10:49:16.571Z,100855.30
2018-10-11T10:51:44.727Z,100856.48
2018-10-11T10:54:18.285Z,100854.34
2018-10-11T10:56:46.374Z,100842.51
2018-10-11T10:59:14.554Z,100839.64
2018-10-11T11:01:42.732Z,100840.06
2018-10-11T11:04:10.888Z,100835.86
2018-10-11T11:06:39.072Z,100831.91
2018-10-11T11:09:09.329Z,100836.30
2018-10-11T11:11:37.751Z,100837.23
2018-10-11T11:14:05.951Z,100826.87
2018-10-11T11:16:34.107Z,100821.92
2018-10-11T11:19:02.340Z,100817.77
2018-10-11T11:21:30.476Z,100817.02
2018-10-11T11:23:58.672Z,100804.67
2018-10-11T11:26:26.928Z,100811.56
2018-10-11T11:28:55.140Z,100809.66
2018-10-11T11:31:23.303Z,100805.77
2018-10-11T11:33:51.511Z,100806.47
2018-10-11T11:36:20.307Z,100806.84
2018-10-11T11:38:48.504Z,100806.93
2018-10-11T11:41:17.189Z,100810.97
2018-10-11T11:43:45.363Z,100814.72
2018-10-11T11:46:13.531Z,100812.22
2018-10-11T11:48:41.810Z,100807.77
2018-10-11T11:51:11.190Z,100808.14
2018-10-11T11:53:40.310Z,100807.31
2018-10-11T11:56:08.571Z,100803.09
2018-10-11T11:58:37.045Z,100796.72
2018-10-11T12:01:05.214Z,100793.44
2018-10-11T12:03:33.379Z,100798.25
2018-10-11T12:06:01.668Z,100801.42
2018-10-11T12:08:32.504Z,100799.20
2018-10-11T12:11:00.788Z,100796.01
2018-10-11T12:13:29.022Z,100804.56
2018-10-11T12:15:57.218Z,100797.34
2018-10-11T12:18:25.451Z,100807.86
2018-10-11T12:20:53.715Z,100801.16
2018-10-11T12:23:22.073Z,100808.59
2018-10-11T12:25:50.322Z,100799.57
2018-10-11T12:28:19.185Z,100810.46
2018-10-11T12:30:47.487Z,100799.59
2018-10-11T12:33:15.752Z,100800.09
2018-10-11T12:35:43.952Z,100793.91
2018-10-11T12:38:12.368Z,100802.00
2018-10-11T12:40:40.771Z,100799.08
2018-10-11T12:43:09.507Z,100794.77
2018-10-11T12:45:38.073Z,100799.35
2018-10-11T12:48:05.974Z,100804.29
2018-10-11T12:50:34.418Z,100806.83
2018-10-11T12:53:02.815Z,100807.02
2018-10-11T12:55:31.016Z,100810.72
2018-10-11T12:57:59.211Z,100802.85
2018-10-11T13:00:27.397Z,100803.55
2018-10-11T13:02:55.792Z,100801.05
2018-10-11T13:05:23.979Z,100795.73
2018-10-11T13:07:52.241Z,100802.50
2018-10-11T13:10:20.465Z,100802.87
2018-10-11T13:12:48.814Z,100805.41
2018-10-11T13:15:17.113Z,100799.91
2018-10-11T13:17:45.295Z,100802.95
2018-10-11T13:20:13.456Z,100799.98
2018-10-11T13:22:41.610Z,100799.66
2018-10-11T13:25:09.758Z,100803.35
2018-10-11T13:27:38.110Z,100798.82
2018-10-11T13:30:06.356Z,100803.86
2018-10-11T13:32:34.571Z,100807.55
2018-10-11T13:35:02.930Z,100803.72
2018-10-11T13:37:31.226Z,100804.55
2018-10-11T13:39:59.419Z,100802.52
2018-10-11T13:42:27.629Z,100808.72
2018-10-11T13:44:55.984Z,100803.35
2018-10-11T13:47:24.352Z,100805.20
2018-10-11T13:49:52.455Z,100807.23
2018-10-11T13:52:22.512Z,100798.54
2018-10-11T13:54:49.217Z,100798.91
2018-10-11T13:57:17.472Z,100799.08
2018-10-11T13:59:45.711Z,100807.13
2018-10-11T14:02:13.977Z,100804.45
2018-10-11T14:04:42.287Z,100802.78
2018-10-11T14:07:10.684Z,100801.62
2018-10-11T14:09:39.136Z,100790.47
2018-10-11T14:12:07.414Z,100791.48
2018-10-11T14:14:37.621Z,100798.54
2018-10-11T14:17:05.803Z,100796.87
2018-10-11T14:19:33.958Z,100791.01
2018-10-11T14:22:02.231Z,100787.82
2018-10-11T14:24:30.871Z,100784.12
2018-10-11T14:26:59.415Z,100787.78
2018-10-11T14:29:27.557Z,100783.77
2018-10-11T14:31:56.009Z,100786.27
2018-10-11T14:34:27.221Z,100784.70
2018-10-11T14:36:55.829Z,100784.41
2018-10-11T14:39:25.310Z,100785.03
2018-10-11T14:41:53.547Z,100780.64
2018-10-11T14:44:21.780Z,100780.61
2018-10-11T14:46:50.057Z,100779.87
2018-10-11T14:49:18.285Z,100773.79
2018-10-11T14:51:48.723Z,100769.73
2018-10-11T14:54:14.819Z,100777.44
2018-10-11T14:56:43.151Z,100771.44
2018-10-11T14:59:13.199Z,100769.95
2018-10-11T15:01:42.807Z,100769.70
2018-10-11T15:04:16.407Z,100770.25
2018-10-11T15:06:49.102Z,100764.61
2018-10-11T15:09:21.879Z,100762.69
2018-10-11T15:11:51.304Z,100773.95
2018-10-11T15:14:21.809Z,100772.83
2018-10-11T15:16:53.869Z,100769.53
2018-10-11T15:19:24.714Z,100765.55
2018-10-11T15:21:55.202Z,100767.58
2018-10-11T15:24:25.328Z,100772.29
2018-10-11T15:26:56.402Z,100766.09
2018-10-11T15:29:26.193Z,100761.97
2018-10-11T15:31:55.410Z,100762.66
2018-10-11T15:34:26.422Z,100766.02
2018-10-11T15:36:59.101Z,100759.17
2018-10-11T15:39:29.337Z,100766.70
2018-10-11T15:42:01.198Z,100763.02
2018-10-11T15:44:31.673Z,100759.83
2018-10-11T15:47:01.965Z,100768.19
2018-10-11T15:49:32.896Z,100766.85
2018-10-11T15:52:03.768Z,100756.28
2018-10-11T15:54:33.930Z,100760.81
2018-10-11T15:57:03.641Z,100757.11
2018-10-11T15:59:34.244Z,100763.30
2018-10-11T16:02:04.416Z,100761.64
2018-10-11T16:04:34.613Z,100762.98
2018-10-11T16:07:06.991Z,100765.15
2018-10-11T16:09:37.314Z,100759.80
2018-10-11T16:12:07.353Z,100768.66
2018-10-11T16:14:38.483Z,100771.67
2018-10-11T16:17:09.304Z,100766.31
2018-10-11T16:19:42.240Z,100772.17
2018-10-11T16:22:12.436Z,100771.70
2018-10-11T16:24:41.786Z,100778.43
2018-10-11T16:27:14.432Z,100785.16
2018-10-11T16:29:45.327Z,100779.54
2018-10-11T16:32:14.888Z,100782.75
2018-10-11T16:34:44.542Z,100787.30
2018-10-11T16:37:15.184Z,100791.05
2018-10-11T16:39:45.403Z,100787.06
2018-10-11T16:42:17.848Z,100788.76
2018-10-11T16:44:52.359Z,100787.27
2018-10-11T16:47:22.646Z,100795.15
2018-10-11T16:49:53.684Z,100803.56
2018-10-11T16:52:24.251Z,100809.45
2018-10-11T16:54:53.898Z,100817.83
2018-10-11T16:57:23.624Z,100816.34
2018-10-11T16:59:54.763Z,100812.88
2018-10-11T17:02:24.948Z,100814.75
2018-10-11T17:04:59.144Z,100823.42
2018-10-11T17:07:28.907Z,100821.09
2018-10-11T17:09:58.351Z,100818.09
2018-10-11T17:12:30.065Z,100827.13
2018-10-11T17:15:00.087Z,100826.29
2018-10-11T17:17:32.269Z,100831.81
2018-10-11T17:20:05.883Z,100837.88
2018-10-11T17:22:36.689Z,100839.72
2018-10-11T17:25:06.687Z,100838.88
2018-10-11T17:27:37.573Z,100842.23
2018-10-11T17:30:07.238Z,100846.09
2018-10-11T17:32:37.673Z,100848.61
2018-10-11T17:37:55.172Z,100848.50
2018-10-11T17:40:23.652Z,100851.84
2018-10-11T17:42:51.902Z,100849.84
2018-10-11T17:45:20.561Z,100850.36
2018-10-11T17:47:53.840Z,100844.02
2018-10-11T17:50:24.686Z,100857.39
2018-10-11T17:52:52.808Z,100860.44
2018-10-11T17:55:22.462Z,100863.79
2018-10-11T17:57:51.637Z,100870.81
2018-10-11T18:00:22.864Z,100874.84
2018-10-11T18:02:51.119Z,100876.01
2018-10-11T18:05:24.626Z,100880.06
2018-10-11T18:07:52.933Z,100874.88
2018-10-11T18:10:21.117Z,100874.39
2018-10-11T18:12:49.343Z,100874.56
2018-10-11T18:15:17.491Z,100875.90
2018-10-11T18:17:47.689Z,100881.28
2018-10-11T18:20:23.413Z,100881.12
2018-10-11T18:22:51.583Z,100885.30
2018-10-11T18:25:26.001Z,100883.45
2018-10-11T18:27:54.937Z,100883.80
2018-10-11T18:30:23.096Z,100882.30
2018-10-11T18:32:51.356Z,100879.32
2018-10-11T18:35:19.631Z,100882.62
2018-10-11T18:37:47.867Z,100894.32
2018-10-11T18:40:16.209Z,100898.33
2018-10-11T18:42:44.632Z,100900.83
2018-10-11T18:45:12.787Z,100896.02
2018-10-11T18:47:41.016Z,100901.86
2018-10-11T18:50:09.244Z,100904.36
2018-10-11T18:52:37.440Z,100908.20
2018-10-11T18:55:05.671Z,100913.38
2018-10-11T18:57:33.839Z,100917.41
2018-10-11T19:00:02.156Z,100917.57
2018-10-11T19:02:30.340Z,100910.72
2018-10-11T19:04:58.509Z,100908.89
2018-10-11T19:07:29.148Z,100907.71
2018-10-11T19:09:57.406Z,100908.37
2018-10-11T19:12:25.567Z,100905.20
2018-10-11T19:14:53.966Z,100904.23
2018-10-11T19:17:22.123Z,100906.72
2018-10-11T19:19:50.980Z,100910.39
2018-10-11T19:22:19.191Z,100915.06
2018-10-11T19:24:47.363Z,100919.39
2018-10-11T19:27:15.743Z,100927.06
2018-10-11T19:29:43.939Z,100920.89
2018-10-11T19:32:12.106Z,100921.73
2018-10-11T19:34:42.870Z,100920.39
2018-10-11T19:37:12.376Z,100923.06
2018-10-11T19:39:40.590Z,100926.06
2018-10-11T19:42:13.437Z,100920.56
2018-10-11T19:44:41.590Z,100920.06
2018-10-11T19:47:09.755Z,100918.73
2018-10-11T19:49:37.915Z,100908.21
2018-10-11T19:52:06.170Z,100910.05
2018-10-11T19:54:34.627Z,100916.39
2018-10-11T19:57:03.059Z,100923.56
2018-10-11T19:59:31.555Z,100914.55
2018-10-11T20:01:59.695Z,100916.08
2018-10-11T20:04:27.969Z,100928.75
2018-10-11T20:06:56.155Z,100914.39
2018-10-11T20:09:24.602Z,100926.41
2018-10-11T20:11:52.774Z,100927.40
2018-10-11T20:14:20.962Z,100927.72
2018-10-11T20:16:49.131Z,100934.90
2018-10-11T20:19:17.295Z,100937.23
2018-10-11T20:21:52.716Z,100938.72
2018-10-11T20:24:22.073Z,100935.91
2018-10-11T20:26:50.224Z,100939.40
2018-10-11T20:29:18.391Z,100944.56
2018-10-11T20:31:46.588Z,100943.05
2018-10-11T20:34:14.833Z,100934.05
2018-10-11T20:36:42.983Z,100924.70
2018-10-11T20:39:11.252Z,100926.88
2018-10-11T20:41:39.471Z,100925.88
2018-10-11T20:44:07.685Z,100932.71
2018-10-11T20:46:35.836Z,100925.20
2018-10-11T20:49:04.000Z,100928.03
2018-10-11T20:51:32.281Z,100932.04
2018-10-11T20:54:00.338Z,100922.03
2018-10-11T20:56:28.815Z,100923.38
2018-10-11T20:58:56.960Z,100926.20
2018-10-11T21:01:25.211Z,100939.88
2018-10-11T21:03:53.371Z,100945.22
2018-10-11T21:06:21.610Z,100940.88
2018-10-11T21:08:49.792Z,100944.20
2018-10-11T21:11:17.962Z,100939.37
2018-10-11T21:13:46.143Z,100942.03
2018-10-11T21:16:14.291Z,100944.55
2018-10-11T21:18:42.500Z,100945.05
2018-10-11T21:21:10.711Z,100945.87
2018-10-11T21:23:38.855Z,100949.38
2018-10-11T21:26:07.214Z,100943.71
2018-10-11T21:28:35.406Z,100940.05
2018-10-11T21:31:03.688Z,100942.03
2018-10-11T21:33:32.419Z,100940.70
2018-10-11T21:36:00.605Z,100943.03
2018-10-11T21:38:28.766Z,100941.70
2018-10-11T21:40:57.019Z,100936.86
2018-10-11T21:43:25.737Z,100924.52
2018-10-11T21:45:53.908Z,100931.19
2018-10-11T21:48:22.084Z,100929.70
2018-10-11T21:50:50.333Z,100937.88
2018-10-11T21:53:19.956Z,100935.70
2018-10-11T21:55:48.091Z,100937.36
2018-10-11T21:58:16.595Z,100933.14
2018-10-11T22:00:50.095Z,100940.81
2018-10-11T22:03:18.302Z,100932.30
2018-10-11T22:05:46.464Z,100925.14
2018-10-11T22:08:15.639Z,100920.80
2018-10-11T22:10:45.856Z,100916.45
2018-10-11T22:13:14.008Z,100916.95
2018-10-11T22:15:42.173Z,100920.63
2018-10-11T22:18:10.342Z,100920.28
2018-10-11T22:20:38.621Z,100919.28
2018-10-11T22:23:06.895Z,100916.78
2018-10-11T22:25:35.171Z,100917.31
2018-10-11T22:28:04.580Z,100920.30
2018-10-11T22:30:32.783Z,100933.95
2018-10-11T22:33:00.943Z,100936.95
2018-10-11T22:35:29.133Z,100942.29
2018-10-11T22:38:01.603Z,100941.95
2018-10-11T22:40:29.995Z,100942.79
2018-10-11T22:42:58.575Z,100953.30
2018-10-11T22:45:27.259Z,100962.30
2018-10-11T22:47:56.131Z,100971.97
2018-10-11T22:50:25.347Z,100975.14
2018-10-11T22:52:53.595Z,100980.97
2018-10-11T22:55:21.766Z,100985.97
2018-10-11T22:57:49.943Z,100993.79
2018-10-11T23:00:18.118Z,100999.30
2018-10-11T23:02:46.276Z,101001.63
2018-10-11T23:05:14.499Z,101009.32
2018-10-11T23:07:42.703Z,101006.16
2018-10-11T23:10:10.850Z,101008.17
2018-10-11T23:12:39.031Z,101006.98
2018-10-11T23:15:07.308Z,101015.33
2018-10-11T23:17:35.364Z,101017.68
2018-10-11T23:20:03.583Z,101023.36
2018-10-11T23:22:31.778Z,101013.52
2018-10-11T23:24:59.912Z,101018.39
2018-10-11T23:27:28.075Z,101018.02
2018-10-11T23:29:56.333Z,101023.36
2018-10-11T23:32:24.507Z,101030.34
2018-10-11T23:34:52.691Z,101033.66
2018-10-11T23:37:20.838Z,101029.02
2018-10-11T23:39:48.993Z,101041.67
2018-10-11T23:42:17.182Z,101041.33
2018-10-11T23:44:47.219Z,101037.48
2018-10-11T23:47:15.383Z,101034.64
2018-10-11T23:49:43.574Z,101035.78
2018-10-11T23:52:11.754Z,101032.28
2018-10-11T23:54:39.935Z,101036.09
2018-10-11T23:57:08.214Z,101038.77
2018-10-11T23:59:36.386Z,101032.44
